sensor_id;sensor_type;location;lat;lon;timestamp;pressure;altitude;pressure_sealevel;temperature;humidity
23589;BME280;11972;48.078;11.876;2022-07-25T00:02:26;95312.34;;;18.80;100.00
23589;BME280;11972;48.078;11.876;2022-07-25T00:06:27;95307.94;;;18.74;100.00
23589;BME280;11972;48.078;11.876;2022-07-25T00:10:27;95317.91;;;18.67;100.00
23589;BME280;11972;48.078;11.876;2022-07-25T00:14:27;95311.41;;;18.63;100.00
23589;BME280;11972;48.078;11.876;2022-07-25T00:18:28;95306.22;;;18.56;100.00
23589;BME280;11972;48.078;11.876;2022-07-25T00:22:29;95309.63;;;18.52;100.00
23589;BME280;11972;48.078;11.876;2022-07-25T00:26:29;95301.13;;;18.43;100.00
23589;BME280;11972;48.078;11.876;2022-07-25T00:30:30;95303.94;;;18.37;100.00
23589;BME280;11972;48.078;11.876;2022-07-25T00:34:30;95295.22;;;18.29;100.00
23589;BME280;11972;48.078;11.876;2022-07-25T00:38:30;95298.63;;;18.25;100.00
23589;BME280;11972;48.078;11.876;2022-07-25T00:42:31;95296.31;;;18.17;100.00
23589;BME280;11972;48.078;11.876;2022-07-25T00:46:32;95289.00;;;18.12;100.00
23589;BME280;11972;48.078;11.876;2022-07-25T00:50:32;95296.09;;;18.06;100.00
23589;BME280;11972;48.078;11.876;2022-07-25T00:54:33;95292.84;;;18.04;100.00
23589;BME280;11972;48.078;11.876;2022-07-25T00:58:34;95289.00;;;18.00;100.00
23589;BME280;11972;48.078;11.876;2022-07-25T01:02:34;95280.63;;;17.97;100.00
23589;BME280;11972;48.078;11.876;2022-07-25T01:06:34;95283.22;;;17.92;100.00
23589;BME280;11972;48.078;11.876;2022-07-25T01:10:35;95281.81;;;17.89;100.00
23589;BME280;11972;48.078;11.876;2022-07-25T01:14:35;95279.63;;;17.86;100.00
23589;BME280;11972;48.078;11.876;2022-07-25T01:18:35;95275.53;;;17.83;100.00
23589;BME280;11972;48.078;11.876;2022-07-25T01:22:36;95270.66;;;17.80;100.00
23589;BME280;11972;48.078;11.876;2022-07-25T01:26:36;95269.28;;;17.78;100.00
23589;BME280;11972;48.078;11.876;2022-07-25T01:30:37;95270.41;;;17.70;100.00
23589;BME280;11972;48.078;11.876;2022-07-25T01:34:37;95268.22;;;17.67;100.00
23589;BME280;11972;48.078;11.876;2022-07-25T01:38:37;95258.56;;;17.66;100.00
23589;BME280;11972;48.078;11.876;2022-07-25T01:42:38;95260.91;;;17.63;100.00
23589;BME280;11972;48.078;11.876;2022-07-25T01:46:38;95250.66;;;17.59;100.00
23589;BME280;11972;48.078;11.876;2022-07-25T01:50:38;95240.69;;;17.55;100.00
23589;BME280;11972;48.078;11.876;2022-07-25T01:54:39;95248.34;;;17.51;100.00
23589;BME280;11972;48.078;11.876;2022-07-25T01:58:40;95242.91;;;17.46;100.00
23589;BME280;11972;48.078;11.876;2022-07-25T02:02:42;95235.59;;;17.42;100.00
23589;BME280;11972;48.078;11.876;2022-07-25T02:06:43;95236.03;;;17.39;100.00
23589;BME280;11972;48.078;11.876;2022-07-25T02:10:43;95235.94;;;17.33;100.00
23589;BME280;11972;48.078;11.876;2022-07-25T02:14:43;95233.16;;;17.28;100.00
23589;BME280;11972;48.078;11.876;2022-07-25T02:18:44;95228.81;;;17.27;100.00
23589;BME280;11972;48.078;11.876;2022-07-25T02:22:45;95227.56;;;17.30;100.00
23589;BME280;11972;48.078;11.876;2022-07-25T02:26:45;95232.09;;;17.29;100.00
23589;BME280;11972;48.078;11.876;2022-07-25T02:30:45;95224.09;;;17.29;100.00
23589;BME280;11972;48.078;11.876;2022-07-25T02:34:45;95225.00;;;17.23;100.00
23589;BME280;11972;48.078;11.876;2022-07-25T02:38:46;95218.03;;;17.22;100.00
23589;BME280;11972;48.078;11.876;2022-07-25T02:42:47;95216.75;;;17.13;100.00
23589;BME280;11972;48.078;11.876;2022-07-25T02:46:47;95217.94;;;17.17;100.00
23589;BME280;11972;48.078;11.876;2022-07-25T02:50:47;95213.28;;;17.24;100.00
23589;BME280;11972;48.078;11.876;2022-07-25T02:54:48;95214.47;;;17.28;100.00
23589;BME280;11972;48.078;11.876;2022-07-25T02:58:49;95207.47;;;17.27;100.00
23589;BME280;11972;48.078;11.876;2022-07-25T03:02:50;95216.41;;;17.21;100.00
23589;BME280;11972;48.078;11.876;2022-07-25T03:06:50;95220.72;;;17.22;100.00
23589;BME280;11972;48.078;11.876;2022-07-25T03:10:50;95219.09;;;17.21;100.00
23589;BME280;11972;48.078;11.876;2022-07-25T03:14:51;95221.75;;;17.21;100.00
23589;BME280;11972;48.078;11.876;2022-07-25T03:18:52;95222.31;;;17.23;100.00
23589;BME280;11972;48.078;11.876;2022-07-25T03:22:52;95226.41;;;17.26;100.00
23589;BME280;11972;48.078;11.876;2022-07-25T03:26:52;95226.31;;;17.32;100.00
23589;BME280;11972;48.078;11.876;2022-07-25T03:30:54;95221.97;;;17.31;100.00
23589;BME280;11972;48.078;11.876;2022-07-25T03:34:54;95219.91;;;17.33;100.00
23589;BME280;11972;48.078;11.876;2022-07-25T03:38:54;95214.91;;;17.25;100.00
23589;BME280;11972;48.078;11.876;2022-07-25T03:42:56;95212.25;;;17.25;100.00
23589;BME280;11972;48.078;11.876;2022-07-25T03:46:56;95212.81;;;17.27;100.00
23589;BME280;11972;48.078;11.876;2022-07-25T03:50:56;95203.78;;;17.28;100.00
23589;BME280;11972;48.078;11.876;2022-07-25T03:54:57;95217.13;;;17.28;100.00
23589;BME280;11972;48.078;11.876;2022-07-25T03:58:57;95212.34;;;17.30;100.00
23589;BME280;11972;48.078;11.876;2022-07-25T04:02:58;95213.41;;;17.29;100.00
23589;BME280;11972;48.078;11.876;2022-07-25T04:06:58;95210.28;;;17.32;100.00
23589;BME280;11972;48.078;11.876;2022-07-25T04:10:58;95217.94;;;17.41;100.00
23589;BME280;11972;48.078;11.876;2022-07-25T04:14:59;95214.94;;;17.49;100.00
23589;BME280;11972;48.078;11.876;2022-07-25T04:18:59;95205.63;;;17.63;100.00
23589;BME280;11972;48.078;11.876;2022-07-25T04:22:59;95206.44;;;17.75;100.00
23589;BME280;11972;48.078;11.876;2022-07-25T04:27:00;95205.63;;;17.87;100.00
23589;BME280;11972;48.078;11.876;2022-07-25T04:31:01;95201.16;;;18.04;100.00
23589;BME280;11972;48.078;11.876;2022-07-25T04:35:01;95197.75;;;18.20;100.00
23589;BME280;11972;48.078;11.876;2022-07-25T04:39:01;95189.44;;;18.33;100.00
23589;BME280;11972;48.078;11.876;2022-07-25T04:43:02;95191.41;;;18.38;100.00
23589;BME280;11972;48.078;11.876;2022-07-25T04:47:03;95194.41;;;18.42;100.00
23589;BME280;11972;48.078;11.876;2022-07-25T04:51:04;95183.66;;;18.53;100.00
23589;BME280;11972;48.078;11.876;2022-07-25T04:55:05;95189.66;;;18.72;100.00
23589;BME280;11972;48.078;11.876;2022-07-25T04:59:05;95189.91;;;18.88;100.00
23589;BME280;11972;48.078;11.876;2022-07-25T05:03:05;95185.94;;;19.07;100.00
23589;BME280;11972;48.078;11.876;2022-07-25T05:07:06;95180.66;;;19.29;100.00
23589;BME280;11972;48.078;11.876;2022-07-25T05:11:06;95175.91;;;19.53;100.00
23589;BME280;11972;48.078;11.876;2022-07-25T05:15:07;95179.97;;;19.72;100.00
23589;BME280;11972;48.078;11.876;2022-07-25T05:19:07;95183.16;;;19.91;100.00
23589;BME280;11972;48.078;11.876;2022-07-25T05:23:08;95189.34;;;20.14;100.00
23589;BME280;11972;48.078;11.876;2022-07-25T05:27:09;95183.72;;;20.37;100.00
23589;BME280;11972;48.078;11.876;2022-07-25T05:31:09;95178.00;;;20.50;100.00
23589;BME280;11972;48.078;11.876;2022-07-25T05:35:09;95176.50;;;20.65;100.00
23589;BME280;11972;48.078;11.876;2022-07-25T05:39:09;95171.03;;;20.81;100.00
23589;BME280;11972;48.078;11.876;2022-07-25T05:43:10;95171.16;;;20.97;100.00
23589;BME280;11972;48.078;11.876;2022-07-25T05:47:10;95177.97;;;21.10;100.00
23589;BME280;11972;48.078;11.876;2022-07-25T05:51:11;95177.03;;;21.26;100.00
23589;BME280;11972;48.078;11.876;2022-07-25T05:55:11;95178.28;;;21.45;100.00
23589;BME280;11972;48.078;11.876;2022-07-25T05:59:12;95175.97;;;21.64;100.00
23589;BME280;11972;48.078;11.876;2022-07-25T06:03:13;95172.28;;;21.80;100.00
23589;BME280;11972;48.078;11.876;2022-07-25T06:07:13;95171.28;;;21.97;100.00
23589;BME280;11972;48.078;11.876;2022-07-25T06:11:13;95174.94;;;22.18;100.00
23589;BME280;11972;48.078;11.876;2022-07-25T06:15:14;95173.66;;;22.36;100.00
23589;BME280;11972;48.078;11.876;2022-07-25T06:19:14;95173.66;;;22.46;100.00
23589;BME280;11972;48.078;11.876;2022-07-25T06:23:15;95166.72;;;22.65;100.00
23589;BME280;11972;48.078;11.876;2022-07-25T06:27:16;95171.84;;;22.82;100.00
23589;BME280;11972;48.078;11.876;2022-07-25T06:31:16;95167.88;;;23.10;100.00
23589;BME280;11972;48.078;11.876;2022-07-25T06:35:17;95169.19;;;23.38;100.00
23589;BME280;11972;48.078;11.876;2022-07-25T06:39:17;95172.38;;;23.91;100.00
23589;BME280;11972;48.078;11.876;2022-07-25T06:43:18;95175.25;;;24.10;100.00
23589;BME280;11972;48.078;11.876;2022-07-25T06:47:18;95166.28;;;24.25;100.00
23589;BME280;11972;48.078;11.876;2022-07-25T06:51:18;95157.56;;;24.48;100.00
23589;BME280;11972;48.078;11.876;2022-07-25T06:55:20;95156.63;;;24.73;100.00
23589;BME280;11972;48.078;11.876;2022-07-25T06:59:20;95150.47;;;25.02;100.00
23589;BME280;11972;48.078;11.876;2022-07-25T07:03:20;95149.19;;;25.29;100.00
23589;BME280;11972;48.078;11.876;2022-07-25T07:07:21;95155.50;;;25.48;100.00
23589;BME280;11972;48.078;11.876;2022-07-25T07:11:22;95154.50;;;25.68;100.00
23589;BME280;11972;48.078;11.876;2022-07-25T07:15:22;95148.13;;;25.83;100.00
23589;BME280;11972;48.078;11.876;2022-07-25T07:19:22;95148.31;;;25.91;100.00
23589;BME280;11972;48.078;11.876;2022-07-25T07:23:24;95149.88;;;25.97;100.00
23589;BME280;11972;48.078;11.876;2022-07-25T07:27:24;95145.66;;;26.10;100.00
23589;BME280;11972;48.078;11.876;2022-07-25T07:31:25;95138.97;;;26.27;100.00
23589;BME280;11972;48.078;11.876;2022-07-25T07:35:25;95140.09;;;26.44;100.00
23589;BME280;11972;48.078;11.876;2022-07-25T07:39:26;95125.56;;;26.59;100.00
23589;BME280;11972;48.078;11.876;2022-07-25T07:43:29;95135.06;;;26.76;100.00
23589;BME280;11972;48.078;11.876;2022-07-25T07:47:31;95118.66;;;26.86;100.00
23589;BME280;11972;48.078;11.876;2022-07-25T07:51:32;95120.59;;;26.99;100.00
23589;BME280;11972;48.078;11.876;2022-07-25T07:55:33;95124.50;;;27.12;100.00
23589;BME280;11972;48.078;11.876;2022-07-25T07:59:47;95126.44;;;27.25;100.00
23589;BME280;11972;48.078;11.876;2022-07-25T08:03:48;95120.03;;;27.35;100.00
23589;BME280;11972;48.078;11.876;2022-07-25T08:07:49;95129.34;;;27.61;100.00
23589;BME280;11972;48.078;11.876;2022-07-25T08:11:51;95128.09;;;27.86;100.00
23589;BME280;11972;48.078;11.876;2022-07-25T08:15:54;95123.66;;;28.04;100.00
23589;BME280;11972;48.078;11.876;2022-07-25T08:19:57;95128.25;;;28.17;100.00
23589;BME280;11972;48.078;11.876;2022-07-25T08:23:57;95118.13;;;28.37;100.00
23589;BME280;11972;48.078;11.876;2022-07-25T08:28:02;95122.50;;;28.60;100.00
23589;BME280;11972;48.078;11.876;2022-07-25T08:32:03;95112.16;;;28.85;100.00
23589;BME280;11972;48.078;11.876;2022-07-25T08:36:04;95099.19;;;29.04;100.00
23589;BME280;11972;48.078;11.876;2022-07-25T08:40:05;95101.22;;;29.21;100.00
23589;BME280;11972;48.078;11.876;2022-07-25T08:44:07;95108.88;;;29.41;100.00
23589;BME280;11972;48.078;11.876;2022-07-25T08:48:08;95098.53;;;29.52;100.00
23589;BME280;11972;48.078;11.876;2022-07-25T08:52:12;95098.00;;;29.41;100.00
23589;BME280;11972;48.078;11.876;2022-07-25T08:56:16;95093.28;;;29.56;100.00
23589;BME280;11972;48.078;11.876;2022-07-25T09:00:19;95092.44;;;29.78;100.00
23589;BME280;11972;48.078;11.876;2022-07-25T09:04:20;95094.09;;;29.96;100.00
23589;BME280;11972;48.078;11.876;2022-07-25T09:08:20;95087.56;;;30.06;100.00
23589;BME280;11972;48.078;11.876;2022-07-25T09:12:26;95086.22;;;30.43;100.00
23589;BME280;11972;48.078;11.876;2022-07-25T09:16:35;95087.25;;;30.91;100.00
23589;BME280;11972;48.078;11.876;2022-07-25T09:20:45;95082.88;;;31.16;100.00
23589;BME280;11972;48.078;11.876;2022-07-25T09:24:46;95075.44;;;31.42;100.00
23589;BME280;11972;48.078;11.876;2022-07-25T09:28:48;95066.81;;;31.40;97.96
23589;BME280;11972;48.078;11.876;2022-07-25T09:32:59;95070.59;;;31.56;95.19
23589;BME280;11972;48.078;11.876;2022-07-25T09:37:03;95075.94;;;31.82;95.68
23589;BME280;11972;48.078;11.876;2022-07-25T09:41:04;95075.28;;;31.94;93.66
23589;BME280;11972;48.078;11.876;2022-07-25T09:45:11;95069.03;;;31.94;90.69
23589;BME280;11972;48.078;11.876;2022-07-25T09:49:12;95072.91;;;32.13;89.74
23589;BME280;11972;48.078;11.876;2022-07-25T09:53:17;95068.06;;;32.19;82.44
23589;BME280;11972;48.078;11.876;2022-07-25T09:57:22;95073.75;;;32.14;83.85
23589;BME280;11972;48.078;11.876;2022-07-25T10:01:33;95076.03;;;32.03;86.95
23589;BME280;11972;48.078;11.876;2022-07-25T10:05:49;95055.97;;;31.99;88.45
23589;BME280;11972;48.078;11.876;2022-07-25T10:09:54;95068.53;;;32.21;79.72
23589;BME280;11972;48.078;11.876;2022-07-25T10:13:55;95071.00;;;32.44;74.30
23589;BME280;11972;48.078;11.876;2022-07-25T10:18:03;95042.88;;;32.43;69.42
23589;BME280;11972;48.078;11.876;2022-07-25T10:22:06;95054.81;;;32.59;65.72
23589;BME280;11972;48.078;11.876;2022-07-25T10:26:08;95045.31;;;32.78;60.89
23589;BME280;11972;48.078;11.876;2022-07-25T10:30:19;95045.78;;;32.80;58.81
23589;BME280;11972;48.078;11.876;2022-07-25T10:34:29;95021.88;;;33.10;53.81
23589;BME280;11972;48.078;11.876;2022-07-25T10:38:31;95033.41;;;33.16;51.06
23589;BME280;11972;48.078;11.876;2022-07-25T10:42:33;95022.44;;;33.16;49.42
23589;BME280;11972;48.078;11.876;2022-07-25T10:46:33;95023.69;;;33.06;49.98
23589;BME280;11972;48.078;11.876;2022-07-25T10:50:34;95005.47;;;33.10;47.24
23589;BME280;11972;48.078;11.876;2022-07-25T10:54:36;95014.75;;;33.42;44.29
23589;BME280;11972;48.078;11.876;2022-07-25T10:59:03;95002.66;;;33.43;44.17
23589;BME280;11972;48.078;11.876;2022-07-25T11:03:03;95019.94;;;33.56;45.47
23589;BME280;11972;48.078;11.876;2022-07-25T11:07:12;95020.28;;;33.54;45.89
23589;BME280;11972;48.078;11.876;2022-07-25T11:11:13;95005.75;;;33.42;46.28
23589;BME280;11972;48.078;11.876;2022-07-25T11:15:21;95006.31;;;33.35;45.82
23589;BME280;11972;48.078;11.876;2022-07-25T11:19:28;94997.47;;;33.50;47.60
23589;BME280;11972;48.078;11.876;2022-07-25T11:23:29;94990.63;;;33.56;47.19
23589;BME280;11972;48.078;11.876;2022-07-25T11:27:31;94988.09;;;33.64;49.75
23589;BME280;11972;48.078;11.876;2022-07-25T11:31:32;94984.22;;;34.01;53.17
23589;BME280;11972;48.078;11.876;2022-07-25T11:35:33;94972.78;;;34.24;48.52
23589;BME280;11972;48.078;11.876;2022-07-25T11:39:36;94972.94;;;34.43;46.13
23589;BME280;11972;48.078;11.876;2022-07-25T11:43:37;94971.31;;;34.14;40.73
23589;BME280;11972;48.078;11.876;2022-07-25T11:47:37;94970.50;;;34.14;39.94
23589;BME280;11972;48.078;11.876;2022-07-25T11:51:38;94981.75;;;34.37;35.52
23589;BME280;11972;48.078;11.876;2022-07-25T11:55:39;94967.91;;;34.58;34.38
23589;BME280;11972;48.078;11.876;2022-07-25T11:59:41;94970.66;;;34.45;32.88
23589;BME280;11972;48.078;11.876;2022-07-25T12:03:42;94961.53;;;34.41;33.09
23589;BME280;11972;48.078;11.876;2022-07-25T12:07:46;94956.66;;;34.22;32.00
23589;BME280;11972;48.078;11.876;2022-07-25T12:11:47;94962.47;;;34.33;31.77
23589;BME280;11972;48.078;11.876;2022-07-25T12:15:48;94948.09;;;34.36;32.12
23589;BME280;11972;48.078;11.876;2022-07-25T12:19:48;94956.69;;;34.63;30.48
23589;BME280;11972;48.078;11.876;2022-07-25T12:23:49;94958.88;;;34.57;30.37
23589;BME280;11972;48.078;11.876;2022-07-25T12:27:50;94958.44;;;34.43;29.58
23589;BME280;11972;48.078;11.876;2022-07-25T12:31:50;94946.28;;;34.56;30.15
23589;BME280;11972;48.078;11.876;2022-07-25T12:35:51;94945.75;;;34.50;29.57
23589;BME280;11972;48.078;11.876;2022-07-25T12:39:54;94962.88;;;34.47;29.70
23589;BME280;11972;48.078;11.876;2022-07-25T12:43:55;94951.09;;;34.47;29.86
23589;BME280;11972;48.078;11.876;2022-07-25T12:47:57;94945.53;;;34.43;29.60
23589;BME280;11972;48.078;11.876;2022-07-25T12:51:58;94944.72;;;34.43;30.07
23589;BME280;11972;48.078;11.876;2022-07-25T12:55:58;94925.53;;;34.43;30.13
23589;BME280;11972;48.078;11.876;2022-07-25T12:59:59;94937.28;;;34.55;30.16
23589;BME280;11972;48.078;11.876;2022-07-25T13:04:00;94955.09;;;34.62;30.26
23589;BME280;11972;48.078;11.876;2022-07-25T13:08:03;94924.50;;;34.75;30.69
23589;BME280;11972;48.078;11.876;2022-07-25T13:12:04;94935.56;;;35.07;30.84
23589;BME280;11972;48.078;11.876;2022-07-25T13:16:05;94936.63;;;35.18;29.63
23589;BME280;11972;48.078;11.876;2022-07-25T13:20:07;94914.56;;;35.46;29.62
23589;BME280;11972;48.078;11.876;2022-07-25T13:24:09;94906.81;;;35.48;28.59
23589;BME280;11972;48.078;11.876;2022-07-25T13:28:09;94913.09;;;35.49;28.71
23589;BME280;11972;48.078;11.876;2022-07-25T13:32:10;94911.03;;;35.62;28.51
23589;BME280;11972;48.078;11.876;2022-07-25T13:36:11;94891.78;;;35.77;28.00
23589;BME280;11972;48.078;11.876;2022-07-25T13:40:12;94897.66;;;35.95;28.17
23589;BME280;11972;48.078;11.876;2022-07-25T13:44:12;94882.72;;;36.12;28.33
23589;BME280;11972;48.078;11.876;2022-07-25T13:48:14;94873.81;;;36.58;27.72
23589;BME280;11972;48.078;11.876;2022-07-25T13:52:22;94888.19;;;36.70;27.81
23589;BME280;11972;48.078;11.876;2022-07-25T13:56:22;94876.84;;;36.72;27.68
23589;BME280;11972;48.078;11.876;2022-07-25T14:00:23;94870.47;;;36.68;26.42
23589;BME280;11972;48.078;11.876;2022-07-25T14:04:23;94874.31;;;36.44;26.64
23589;BME280;11972;48.078;11.876;2022-07-25T14:08:24;94866.44;;;36.42;26.98
23589;BME280;11972;48.078;11.876;2022-07-25T14:12:27;94874.31;;;36.24;26.96
23589;BME280;11972;48.078;11.876;2022-07-25T14:16:28;94862.53;;;36.24;26.77
23589;BME280;11972;48.078;11.876;2022-07-25T14:20:29;94850.69;;;36.20;25.94
23589;BME280;11972;48.078;11.876;2022-07-25T14:24:30;94857.56;;;36.30;24.55
23589;BME280;11972;48.078;11.876;2022-07-25T14:28:30;94852.84;;;36.49;24.25
23589;BME280;11972;48.078;11.876;2022-07-25T14:32:31;94864.50;;;36.43;23.94
23589;BME280;11972;48.078;11.876;2022-07-25T14:36:32;94844.44;;;36.42;23.34
23589;BME280;11972;48.078;11.876;2022-07-25T14:40:32;94826.34;;;36.61;24.28
23589;BME280;11972;48.078;11.876;2022-07-25T14:44:33;94822.94;;;36.67;23.82
23589;BME280;11972;48.078;11.876;2022-07-25T14:48:37;94808.81;;;36.69;23.49
23589;BME280;11972;48.078;11.876;2022-07-25T14:52:37;94829.84;;;36.81;24.04
23589;BME280;11972;48.078;11.876;2022-07-25T14:56:38;94807.28;;;37.17;23.85
23589;BME280;11972;48.078;11.876;2022-07-25T15:00:39;94804.38;;;37.33;23.92
23589;BME280;11972;48.078;11.876;2022-07-25T15:04:42;94785.28;;;37.74;24.10
23589;BME280;11972;48.078;11.876;2022-07-25T15:08:42;94805.34;;;38.05;24.28
23589;BME280;11972;48.078;11.876;2022-07-25T15:12:43;94801.13;;;37.84;23.77
23589;BME280;11972;48.078;11.876;2022-07-25T15:16:43;94810.19;;;37.55;24.26
23589;BME280;11972;48.078;11.876;2022-07-25T15:20:44;94795.25;;;37.56;24.30
23589;BME280;11972;48.078;11.876;2022-07-25T15:24:44;94786.16;;;37.52;24.13
23589;BME280;11972;48.078;11.876;2022-07-25T15:28:44;94784.59;;;37.84;24.06
23589;BME280;11972;48.078;11.876;2022-07-25T15:32:45;94778.25;;;38.10;23.36
23589;BME280;11972;48.078;11.876;2022-07-25T15:36:45;94774.88;;;38.24;23.63
23589;BME280;11972;48.078;11.876;2022-07-25T15:40:46;94772.47;;;38.60;23.48
23589;BME280;11972;48.078;11.876;2022-07-25T15:44:47;94761.06;;;38.61;23.16
23589;BME280;11972;48.078;11.876;2022-07-25T15:48:47;94757.94;;;38.66;22.94
23589;BME280;11972;48.078;11.876;2022-07-25T15:52:48;94753.88;;;38.50;22.43
23589;BME280;11972;48.078;11.876;2022-07-25T15:56:48;94765.84;;;38.68;21.94
23589;BME280;11972;48.078;11.876;2022-07-25T16:00:49;94761.78;;;38.55;22.23
23589;BME280;11972;48.078;11.876;2022-07-25T16:04:49;94746.53;;;38.27;22.42
23589;BME280;11972;48.078;11.876;2022-07-25T16:08:50;94739.69;;;38.51;22.55
23589;BME280;11972;48.078;11.876;2022-07-25T16:12:51;94729.78;;;38.91;22.01
23589;BME280;11972;48.078;11.876;2022-07-25T16:16:51;94735.72;;;39.52;21.31
23589;BME280;11972;48.078;11.876;2022-07-25T16:20:52;94724.06;;;39.94;21.13
23589;BME280;11972;48.078;11.876;2022-07-25T16:24:52;94721.03;;;40.38;20.30
23589;BME280;11972;48.078;11.876;2022-07-25T16:28:52;94720.22;;;40.16;20.21
23589;BME280;11972;48.078;11.876;2022-07-25T16:32:53;94731.13;;;39.77;19.85
23589;BME280;11972;48.078;11.876;2022-07-25T16:36:54;94716.19;;;39.19;19.75
23589;BME280;11972;48.078;11.876;2022-07-25T16:40:54;94704.09;;;39.38;20.16
23589;BME280;11972;48.078;11.876;2022-07-25T16:44:55;94707.03;;;39.67;19.78
23589;BME280;11972;48.078;11.876;2022-07-25T16:48:56;94700.66;;;39.66;20.21
23589;BME280;11972;48.078;11.876;2022-07-25T16:52:56;94689.28;;;39.75;19.65
23589;BME280;11972;48.078;11.876;2022-07-25T16:56:56;94684.94;;;39.78;19.60
23589;BME280;11972;48.078;11.876;2022-07-25T17:00:57;94695.97;;;39.67;19.58
23589;BME280;11972;48.078;11.876;2022-07-25T17:04:57;94691.91;;;39.54;19.71
23589;BME280;11972;48.078;11.876;2022-07-25T17:08:58;94694.66;;;39.47;19.77
23589;BME280;11972;48.078;11.876;2022-07-25T17:12:58;94691.91;;;39.47;20.38
23589;BME280;11972;48.078;11.876;2022-07-25T17:16:58;94697.59;;;39.13;20.19
23589;BME280;11972;48.078;11.876;2022-07-25T17:20:59;94701.22;;;38.24;20.91
23589;BME280;11972;48.078;11.876;2022-07-25T17:24:59;94712.06;;;36.63;22.46
23589;BME280;11972;48.078;11.876;2022-07-25T17:28:59;94713.72;;;35.44;23.74
23589;BME280;11972;48.078;11.876;2022-07-25T17:33:00;94700.84;;;34.78;25.07
23589;BME280;11972;48.078;11.876;2022-07-25T17:37:01;94701.63;;;34.15;26.28
23589;BME280;11972;48.078;11.876;2022-07-25T17:41:02;94705.38;;;33.79;27.56
23589;BME280;11972;48.078;11.876;2022-07-25T17:45:03;94710.28;;;33.45;29.13
23589;BME280;11972;48.078;11.876;2022-07-25T17:49:06;94717.66;;;33.17;30.66
23589;BME280;11972;48.078;11.876;2022-07-25T17:53:06;94716.75;;;33.00;32.01
23589;BME280;11972;48.078;11.876;2022-07-25T17:57:06;94713.31;;;32.79;33.90
23589;BME280;11972;48.078;11.876;2022-07-25T18:01:07;94716.06;;;32.54;35.98
23589;BME280;11972;48.078;11.876;2022-07-25T18:05:08;94710.09;;;32.28;38.30
23589;BME280;11972;48.078;11.876;2022-07-25T18:09:08;94716.88;;;32.09;40.52
23589;BME280;11972;48.078;11.876;2022-07-25T18:13:09;94729.16;;;31.91;42.69
23589;BME280;11972;48.078;11.876;2022-07-25T18:17:09;94733.69;;;31.66;45.93
23589;BME280;11972;48.078;11.876;2022-07-25T18:21:10;94729.41;;;31.44;48.38
23589;BME280;11972;48.078;11.876;2022-07-25T18:25:11;94734.94;;;31.35;50.55
23589;BME280;11972;48.078;11.876;2022-07-25T18:29:12;94747.75;;;31.35;51.45
23589;BME280;11972;48.078;11.876;2022-07-25T18:33:13;94787.09;;;31.34;56.29
23589;BME280;11972;48.078;11.876;2022-07-25T18:37:14;94791.31;;;30.93;63.66
23589;BME280;11972;48.078;11.876;2022-07-25T18:41:14;94808.09;;;30.65;68.03
23589;BME280;11972;48.078;11.876;2022-07-25T18:45:14;94806.44;;;30.35;70.96
23589;BME280;11972;48.078;11.876;2022-07-25T18:49:15;94810.81;;;30.01;73.93
23589;BME280;11972;48.078;11.876;2022-07-25T18:53:15;94809.22;;;29.65;76.44
23589;BME280;11972;48.078;11.876;2022-07-25T18:57:15;94811.09;;;29.30;79.75
23589;BME280;11972;48.078;11.876;2022-07-25T19:01:16;94811.84;;;29.05;82.86
23589;BME280;11972;48.078;11.876;2022-07-25T19:05:16;94813.22;;;28.85;85.31
23589;BME280;11972;48.078;11.876;2022-07-25T19:09:17;94815.56;;;28.69;86.99
23589;BME280;11972;48.078;11.876;2022-07-25T19:13:18;94829.53;;;28.54;89.00
23589;BME280;11972;48.078;11.876;2022-07-25T19:17:19;94838.88;;;28.39;91.02
23589;BME280;11972;48.078;11.876;2022-07-25T19:21:19;94835.28;;;28.30;92.92
23589;BME280;11972;48.078;11.876;2022-07-25T19:25:20;94832.66;;;28.16;94.16
23589;BME280;11972;48.078;11.876;2022-07-25T19:29:20;94843.47;;;28.07;95.70
23589;BME280;11972;48.078;11.876;2022-07-25T19:33:20;94842.63;;;27.98;95.96
23589;BME280;11972;48.078;11.876;2022-07-25T19:37:21;94843.97;;;27.87;97.05
23589;BME280;11972;48.078;11.876;2022-07-25T19:41:21;94849.63;;;27.77;98.51
23589;BME280;11972;48.078;11.876;2022-07-25T19:45:22;94846.31;;;27.66;99.52
23589;BME280;11972;48.078;11.876;2022-07-25T19:49:22;94831.19;;;27.51;100.00
23589;BME280;11972;48.078;11.876;2022-07-25T19:53:22;94822.59;;;27.35;100.00
23589;BME280;11972;48.078;11.876;2022-07-25T19:57:23;94828.06;;;27.21;100.00
23589;BME280;11972;48.078;11.876;2022-07-25T20:01:23;94830.44;;;27.09;100.00
23589;BME280;11972;48.078;11.876;2022-07-25T20:05:23;94831.75;;;26.98;100.00
23589;BME280;11972;48.078;11.876;2022-07-25T20:09:24;94828.75;;;26.86;100.00
23589;BME280;11972;48.078;11.876;2022-07-25T20:13:24;94815.59;;;26.65;100.00
23589;BME280;11972;48.078;11.876;2022-07-25T20:17:26;94812.09;;;26.51;100.00
23589;BME280;11972;48.078;11.876;2022-07-25T20:21:27;94809.16;;;26.34;100.00
23589;BME280;11972;48.078;11.876;2022-07-25T20:25:28;94796.09;;;26.22;100.00
23589;BME280;11972;48.078;11.876;2022-07-25T20:29:28;94798.59;;;26.18;100.00
23589;BME280;11972;48.078;11.876;2022-07-25T20:33:29;94804.59;;;26.15;100.00
23589;BME280;11972;48.078;11.876;2022-07-25T20:37:29;94812.28;;;26.08;100.00
23589;BME280;11972;48.078;11.876;2022-07-25T20:41:30;94846.88;;;26.11;100.00
23589;BME280;11972;48.078;11.876;2022-07-25T20:45:30;94890.19;;;26.11;100.00
23589;BME280;11972;48.078;11.876;2022-07-25T20:49:31;94938.44;;;26.04;100.00
23589;BME280;11972;48.078;11.876;2022-07-25T20:53:31;94968.00;;;25.82;100.00